Machens, Missouri
Current Conditions -  °F | °C
As of 12:54 PM on Tuesday 21 Oct 2014 (Local Time) from KSET Reporting Station
Clear Clear  
Wind Chill: 64°   Ceiling: Unl
Heat Index: 64°   Visibility: 10mi
Dew Point: 46°   Wind: 10mph
Humidity: 52%   Direction: 50°NE
Pressure: 30.13"   Gusts: NA
Location:  38.9266°N, 90.3904°W
Report Text: KSET 211754Z AUTO 05009KT 10SM CLR 18/08 A3013 RMK AO2 SLP202 T01780078 10183 20039 58001 $
Loading
Personal Weather Stations






























Interactive Weather Map New forecast layout! Learn more

10-Day Weather Forecast

Advertisements
Track Severe Weather on mobile